createdAt,value
2023-04-08T00:01:37.530Z,4.37
2023-04-08T00:04:06.194Z,4.37
2023-04-08T00:06:36.022Z,4.36
2023-04-08T00:09:05.126Z,4.37
2023-04-08T00:11:33.542Z,4.37
2023-04-08T00:14:02.104Z,4.33
2023-04-08T00:16:30.590Z,4.29
2023-04-08T00:18:59.238Z,4.10
2023-04-08T00:21:27.600Z,4.16
2023-04-08T00:23:57.360Z,4.16
2023-04-08T00:26:26.582Z,4.14
2023-04-08T00:28:54.956Z,4.12
2023-04-08T00:31:23.373Z,4.15
2023-04-08T00:33:52.359Z,4.10
2023-04-08T00:36:21.472Z,4.09
2023-04-08T00:38:50.095Z,4.11
2023-04-08T00:41:20.086Z,4.13
2023-04-08T00:43:48.761Z,4.12
2023-04-08T00:46:17.416Z,4.15
2023-04-08T00:48:45.733Z,4.15
2023-04-08T00:51:14.250Z,4.09
2023-04-08T00:53:42.692Z,4.12
2023-04-08T00:56:11.118Z,4.16
2023-04-08T00:58:41.476Z,4.23
2023-04-08T01:01:16.299Z,4.20
2023-04-08T01:03:57.731Z,4.23
2023-04-08T01:06:33.800Z,3.92
2023-04-08T01:09:05.438Z,4.08
2023-04-08T01:11:36.176Z,4.02
2023-04-08T01:14:10.290Z,4.02
2023-04-08T01:16:41.562Z,3.97
2023-04-08T01:19:14.929Z,3.53
2023-04-08T01:21:43.477Z,4.00
2023-04-08T01:24:19.617Z,3.73
2023-04-08T01:26:49.562Z,3.87
2023-04-08T01:29:18.709Z,3.45
2023-04-08T01:31:48.849Z,3.36
2023-04-08T01:34:20.200Z,3.84
2023-04-08T01:36:49.627Z,3.31
2023-04-08T01:39:21.652Z,3.80
2023-04-08T01:41:55.405Z,3.74
2023-04-08T01:44:24.333Z,3.63
2023-04-08T01:46:54.829Z,3.70
2023-04-08T01:49:26.353Z,3.69
2023-04-08T01:51:57.089Z,3.79
2023-04-08T01:54:25.421Z,3.78
2023-04-08T01:56:57.659Z,3.83
2023-04-08T01:59:32.875Z,3.86
2023-04-08T02:02:03.523Z,3.89
2023-04-08T02:04:32.261Z,3.87
2023-04-08T02:07:01.293Z,3.79
2023-04-08T02:09:29.680Z,3.86
2023-04-08T02:11:59.963Z,3.85
2023-04-08T02:14:29.159Z,3.83
2023-04-08T02:17:06.919Z,3.81
2023-04-08T02:19:42.949Z,3.72
2023-04-08T02:22:18.623Z,3.72
2023-04-08T02:24:49.451Z,3.76
2023-04-08T02:27:20.073Z,3.81
2023-04-08T02:29:49.934Z,3.73
2023-04-08T02:32:19.641Z,3.76
2023-04-08T02:34:49.013Z,3.60
2023-04-08T02:37:18.189Z,3.50
2023-04-08T02:39:46.545Z,3.39
2023-04-08T02:42:14.858Z,3.58
2023-04-08T02:44:44.565Z,3.59
2023-04-08T02:47:12.921Z,3.60
2023-04-08T02:49:41.316Z,3.60
2023-04-08T02:52:09.703Z,3.60
2023-04-08T02:54:38.034Z,3.47
2023-04-08T02:57:06.320Z,3.41
2023-04-08T02:59:37.832Z,3.37
2023-04-08T03:02:07.573Z,3.39
2023-04-08T03:04:36.948Z,3.30
2023-04-08T03:07:06.701Z,3.26
2023-04-08T03:09:36.374Z,3.36
2023-04-08T03:12:04.706Z,2.75
2023-04-08T03:14:33.046Z,3.32
2023-04-08T03:17:01.338Z,3.34
2023-04-08T03:19:31.042Z,3.26
2023-04-08T03:21:59.389Z,3.24
2023-04-08T03:24:27.695Z,3.22
2023-04-08T03:26:55.977Z,3.19
2023-04-08T03:29:24.340Z,3.13
2023-04-08T03:31:52.984Z,3.15
2023-04-08T03:34:21.251Z,3.23
2023-04-08T03:36:51.024Z,3.21
2023-04-08T03:39:19.395Z,3.18
2023-04-08T03:41:47.667Z,3.19
2023-04-08T03:44:16.012Z,3.18
2023-04-08T03:46:44.320Z,3.12
2023-04-08T03:49:12.726Z,3.18
2023-04-08T03:51:41.055Z,2.90
2023-04-08T03:54:11.213Z,3.15
2023-04-08T03:56:39.652Z,3.14
2023-04-08T03:59:07.973Z,3.22
2023-04-08T04:01:36.250Z,3.15
2023-04-08T04:04:04.957Z,3.14
2023-04-08T04:06:33.446Z,3.07
2023-04-08T04:09:01.800Z,3.05
2023-04-08T04:11:31.852Z,3.04
2023-04-08T04:14:00.383Z,3.11
2023-04-08T04:16:29.819Z,3.06
2023-04-08T04:18:59.978Z,3.12
2023-04-08T04:21:28.538Z,3.12
2023-04-08T04:23:56.830Z,3.08
2023-04-08T04:26:25.202Z,3.08
2023-04-08T04:28:55.018Z,3.02
2023-04-08T04:31:26.512Z,2.75
2023-04-08T04:33:55.555Z,2.97
2023-04-08T04:36:24.158Z,2.87
2023-04-08T04:38:52.995Z,2.89
2023-04-08T04:41:21.990Z,2.88
2023-04-08T04:43:50.630Z,2.95
2023-04-08T04:46:20.536Z,2.98
2023-04-08T04:48:49.181Z,2.93
2023-04-08T04:51:17.996Z,2.60
2023-04-08T04:53:46.307Z,2.97
2023-04-08T04:56:14.644Z,2.92
2023-04-08T04:58:43.127Z,2.94
2023-04-08T05:01:11.527Z,2.98
2023-04-08T05:03:41.423Z,2.98
2023-04-08T05:06:09.876Z,3.02
2023-04-08T05:08:38.527Z,3.01
2023-04-08T05:11:11.005Z,2.98
2023-04-08T05:13:39.388Z,3.05
2023-04-08T05:16:08.659Z,2.98
2023-04-08T05:18:36.946Z,2.96
2023-04-08T05:21:06.706Z,2.95
2023-04-08T05:23:36.221Z,2.97
2023-04-08T05:26:04.592Z,3.01
2023-04-08T05:28:32.900Z,3.03
2023-04-08T05:31:01.231Z,3.07
2023-04-08T05:33:29.918Z,2.72
2023-04-08T05:35:59.023Z,3.01
2023-04-08T05:38:28.821Z,3.07
2023-04-08T05:40:57.334Z,2.74
2023-04-08T05:43:25.820Z,3.05
2023-04-08T05:45:54.259Z,3.15
2023-04-08T05:48:22.781Z,3.09
2023-04-08T05:50:51.091Z,3.12
2023-04-08T05:53:20.026Z,3.15
2023-04-08T05:55:49.869Z,3.14
2023-04-08T05:58:18.139Z,3.14
2023-04-08T06:00:46.478Z,3.15
2023-04-08T06:03:15.845Z,3.15
2023-04-08T06:05:45.771Z,3.15
2023-04-08T06:08:14.096Z,3.16
2023-04-08T06:10:42.511Z,3.19
2023-04-08T06:13:12.558Z,3.20
2023-04-08T06:15:40.900Z,3.13
2023-04-08T06:18:09.203Z,3.12
2023-04-08T06:20:38.073Z,3.13
2023-04-08T06:23:06.864Z,3.12
2023-04-08T06:25:35.215Z,3.13
2023-04-08T06:28:03.946Z,3.16
2023-04-08T06:30:33.829Z,3.18
2023-04-08T06:33:02.167Z,3.20
2023-04-08T06:35:32.223Z,3.23
2023-04-08T06:38:00.980Z,2.76
2023-04-08T06:40:29.670Z,3.24
2023-04-08T06:42:58.331Z,3.26
2023-04-08T06:45:26.609Z,3.27
2023-04-08T06:47:57.175Z,3.29
2023-04-08T06:50:25.517Z,3.36
2023-04-08T06:52:53.881Z,3.41
2023-04-08T06:55:22.184Z,3.40
2023-04-08T06:57:50.682Z,3.20
2023-04-08T07:00:19.982Z,3.16
2023-04-08T07:02:48.548Z,3.19
2023-04-08T07:05:18.871Z,3.20
2023-04-08T07:07:47.150Z,3.38
2023-04-08T07:10:16.095Z,3.44
2023-04-08T07:12:44.408Z,3.39
2023-04-08T07:15:13.114Z,3.48
2023-04-08T07:17:41.391Z,3.42
2023-04-08T07:20:10.864Z,3.13
2023-04-08T07:22:40.636Z,3.33
2023-04-08T07:25:09.723Z,3.21
2023-04-08T07:27:38.243Z,3.21
2023-04-08T07:30:08.395Z,3.27
2023-04-08T07:32:36.943Z,3.33
2023-04-08T07:35:05.862Z,2.85
2023-04-08T07:37:34.840Z,3.42
2023-04-08T07:40:04.629Z,3.46
2023-04-08T07:42:32.960Z,3.51
2023-04-08T07:45:01.737Z,3.55
2023-04-08T07:47:30.087Z,3.59
2023-04-08T07:49:58.450Z,3.67
2023-04-08T07:52:27.355Z,3.61
2023-04-08T07:54:56.182Z,3.71
2023-04-08T07:57:26.952Z,3.67
2023-04-08T07:59:55.798Z,3.72
2023-04-08T08:02:24.130Z,3.85
2023-04-08T08:04:52.625Z,3.66
2023-04-08T08:07:20.880Z,3.58
2023-04-08T08:09:49.294Z,3.60
2023-04-08T08:12:17.646Z,3.61
2023-04-08T08:14:47.648Z,3.50
2023-04-08T08:17:16.007Z,3.71
2023-04-08T08:19:44.417Z,3.67
2023-04-08T08:22:13.518Z,3.66
2023-04-08T08:24:41.885Z,3.57
2023-04-08T08:27:11.913Z,3.69
2023-04-08T08:29:40.320Z,3.57
2023-04-08T08:32:10.073Z,3.71
2023-04-08T08:34:38.699Z,3.78
2023-04-08T08:37:07.130Z,3.72
2023-04-08T08:39:35.588Z,3.66
2023-04-08T08:42:03.854Z,3.66
2023-04-08T08:44:32.409Z,3.66
2023-04-08T08:47:01.653Z,3.68
2023-04-08T08:49:31.855Z,3.79
2023-04-08T08:52:01.319Z,3.48
2023-04-08T08:54:29.851Z,3.85
2023-04-08T08:56:58.610Z,3.76
2023-04-08T08:59:27.102Z,3.47
2023-04-08T09:01:55.907Z,2.99
2023-04-08T09:04:24.392Z,3.48
2023-04-08T09:07:14.023Z,3.47
2023-04-08T09:09:52.333Z,3.37
2023-04-08T09:12:21.484Z,3.54
2023-04-08T09:14:50.319Z,3.65
2023-04-08T09:17:33.506Z,3.65
2023-04-08T09:20:12.137Z,3.39
2023-04-08T09:23:08.929Z,3.50
2023-04-08T09:25:38.516Z,3.52
2023-04-08T09:28:19.990Z,3.68
2023-04-08T09:30:49.973Z,3.56
2023-04-08T09:33:18.247Z,3.60
2023-04-08T09:35:47.307Z,3.63
2023-04-08T09:38:17.433Z,3.75
2023-04-08T09:40:46.989Z,3.70
2023-04-08T09:43:20.681Z,3.62
2023-04-08T09:45:48.987Z,3.53
2023-04-08T09:48:24.464Z,3.32
2023-04-08T09:50:56.026Z,3.81
2023-04-08T09:53:31.977Z,3.68
2023-04-08T09:56:02.219Z,3.63
2023-04-08T09:58:34.323Z,3.43
2023-04-08T10:01:03.513Z,3.77
2023-04-08T10:03:36.698Z,3.81
2023-04-08T10:06:06.530Z,3.69
2023-04-08T10:08:37.500Z,4.11
2023-04-08T10:11:06.593Z,3.76
2023-04-08T10:13:35.225Z,3.91
2023-04-08T10:16:24.865Z,3.96
2023-04-08T10:18:56.293Z,3.83
2023-04-08T10:21:35.379Z,3.54
2023-04-08T10:24:08.424Z,3.72
2023-04-08T10:26:39.152Z,3.82
2023-04-08T10:29:44.027Z,3.78
2023-04-08T10:32:30.468Z,3.82
2023-04-08T10:34:58.797Z,3.91
2023-04-08T10:37:27.128Z,3.99
2023-04-08T10:39:57.563Z,3.95
2023-04-08T10:42:29.941Z,4.01
2023-04-08T10:45:02.208Z,4.12
2023-04-08T10:47:30.680Z,4.22
2023-04-08T10:49:59.149Z,3.97
2023-04-08T10:52:27.737Z,3.63
2023-04-08T10:54:57.580Z,4.01
2023-04-08T10:57:26.184Z,4.01
2023-04-08T10:59:54.937Z,4.02
2023-04-08T11:02:23.395Z,3.92
2023-04-08T11:04:56.176Z,3.85
2023-04-08T11:07:27.251Z,2.83
2023-04-08T11:09:57.334Z,3.55
2023-04-08T11:12:25.809Z,3.95
2023-04-08T11:14:54.841Z,3.98
2023-04-08T11:17:24.547Z,3.95
2023-04-08T11:19:54.477Z,3.93
2023-04-08T11:22:22.912Z,3.88
2023-04-08T11:24:51.568Z,3.95
2023-04-08T11:27:23.219Z,3.74
2023-04-08T11:29:51.713Z,4.02
2023-04-08T11:32:20.898Z,4.10
2023-04-08T11:34:49.213Z,4.05
2023-04-08T11:37:17.705Z,4.20
2023-04-08T11:39:46.470Z,3.85
2023-04-08T11:42:30.034Z,4.24
2023-04-08T11:44:58.686Z,4.07
2023-04-08T11:47:33.638Z,4.26
2023-04-08T11:50:02.800Z,4.20
2023-04-08T11:52:44.736Z,4.14
2023-04-08T11:55:13.736Z,3.82
2023-04-08T11:57:43.520Z,4.08
2023-04-08T12:00:12.849Z,4.15
2023-04-08T12:02:42.016Z,4.26
2023-04-08T12:05:11.006Z,4.29
2023-04-08T12:07:39.523Z,4.29
2023-04-08T12:10:09.310Z,4.21
2023-04-08T12:12:37.651Z,3.83
2023-04-08T12:15:08.710Z,4.13
2023-04-08T12:17:38.981Z,3.82
2023-04-08T12:20:08.359Z,3.89
2023-04-08T12:22:36.663Z,4.24
2023-04-08T12:25:05.401Z,4.39
2023-04-08T12:27:34.057Z,4.41
2023-04-08T12:30:02.603Z,4.38
2023-04-08T12:32:32.352Z,4.53
2023-04-08T12:35:00.678Z,4.42
2023-04-08T12:37:29.133Z,4.21
2023-04-08T12:39:57.439Z,4.25
2023-04-08T12:42:25.802Z,4.31
2023-04-08T12:44:54.136Z,4.21
2023-04-08T12:47:24.943Z,4.38
2023-04-08T12:49:56.268Z,4.30
2023-04-08T12:52:24.937Z,4.31
2023-04-08T12:54:53.281Z,4.29
2023-04-08T12:57:21.626Z,4.26
2023-04-08T12:59:50.193Z,4.24
2023-04-08T13:02:18.579Z,4.27
2023-04-08T13:04:47.098Z,4.49
2023-04-08T13:07:16.979Z,4.47
2023-04-08T13:09:45.931Z,4.34
2023-04-08T13:12:14.581Z,4.18
2023-04-08T13:14:43.113Z,4.62
2023-04-08T13:17:11.420Z,4.45
2023-04-08T13:19:39.693Z,4.62
2023-04-08T13:22:08.004Z,4.23
2023-04-08T13:24:38.041Z,4.54
2023-04-08T13:27:06.704Z,4.74
2023-04-08T13:29:34.984Z,4.55
2023-04-08T13:32:03.414Z,4.03
2023-04-08T13:34:32.145Z,4.66
2023-04-08T13:37:00.603Z,4.69
2023-04-08T13:39:28.926Z,4.70
2023-04-08T13:41:59.037Z,4.74
2023-04-08T13:44:27.401Z,4.86
2023-04-08T13:46:56.128Z,5.04
2023-04-08T13:49:24.431Z,5.16
2023-04-08T13:51:52.809Z,5.09
2023-04-08T13:54:21.190Z,4.60
2023-04-08T13:56:49.775Z,5.10
2023-04-08T13:59:19.641Z,5.13
2023-04-08T14:01:48.253Z,5.21
2023-04-08T14:04:16.685Z,5.25
2023-04-08T14:06:45.101Z,5.33
2023-04-08T14:09:13.356Z,5.22
2023-04-08T14:11:41.702Z,5.25
2023-04-08T14:14:10.026Z,5.25
2023-04-08T14:16:40.267Z,5.15
2023-04-08T14:19:09.047Z,5.30
2023-04-08T14:21:38.173Z,5.35
2023-04-08T14:24:07.124Z,5.40
2023-04-08T14:26:36.278Z,5.34
2023-04-08T14:29:05.702Z,5.63
2023-04-08T14:31:34.340Z,5.28
2023-04-08T14:34:05.109Z,5.31
2023-04-08T14:36:33.448Z,5.14
2023-04-08T14:39:01.880Z,5.16
2023-04-08T14:41:30.237Z,5.13
2023-04-08T14:43:58.603Z,4.99
2023-04-08T14:46:29.153Z,4.76
2023-04-08T14:48:58.894Z,5.09
2023-04-08T14:51:29.002Z,5.25
2023-04-08T14:53:57.285Z,5.35
2023-04-08T14:56:37.226Z,5.48
2023-04-08T14:59:06.109Z,5.53
2023-04-08T15:01:34.906Z,5.80
2023-04-08T15:04:03.390Z,5.61
2023-04-08T15:06:33.553Z,5.53
2023-04-08T15:09:02.083Z,5.54
2023-04-08T15:11:30.462Z,5.47
2023-04-08T15:13:58.865Z,5.62
2023-04-08T15:16:27.231Z,5.41
2023-04-08T15:18:55.735Z,4.78
2023-04-08T15:21:24.311Z,5.24
2023-04-08T15:23:54.108Z,5.28
2023-04-08T15:26:23.272Z,5.26
2023-04-08T15:28:52.089Z,5.32
2023-04-08T15:31:20.644Z,5.43
2023-04-08T15:33:49.201Z,5.48
2023-04-08T15:36:19.867Z,5.40
2023-04-08T15:38:48.493Z,5.27
2023-04-08T15:41:20.190Z,5.30
2023-04-08T15:43:49.277Z,5.29
2023-04-08T15:46:20.065Z,5.10
2023-04-08T15:48:48.810Z,5.15
2023-04-08T15:51:17.232Z,5.16
2023-04-08T15:53:45.611Z,5.05
2023-04-08T15:56:15.151Z,5.21
2023-04-08T15:58:45.234Z,5.22
2023-04-08T16:01:13.724Z,5.04
2023-04-08T16:03:42.255Z,5.17
2023-04-08T16:06:10.712Z,5.26
2023-04-08T16:08:39.209Z,5.35
2023-04-08T16:11:08.373Z,5.24
2023-04-08T16:13:39.241Z,5.48
2023-04-08T16:16:09.720Z,5.49
2023-04-08T16:18:39.137Z,5.64
2023-04-08T16:21:08.010Z,5.49
2023-04-08T16:23:37.872Z,5.63
2023-04-08T16:26:08.408Z,5.44
2023-04-08T16:28:36.999Z,5.75
2023-04-08T16:31:05.466Z,5.71
2023-04-08T16:33:35.586Z,5.66
2023-04-08T16:36:04.950Z,5.53
2023-04-08T16:38:33.766Z,5.17
2023-04-08T16:41:03.659Z,5.54
2023-04-08T16:43:32.027Z,5.40
2023-04-08T16:46:00.420Z,5.42
2023-04-08T16:48:28.816Z,5.45
2023-04-08T16:50:58.496Z,5.46
2023-04-08T16:53:27.208Z,5.38
2023-04-08T16:55:55.481Z,4.79
2023-04-08T16:58:23.808Z,5.38
2023-04-08T17:00:52.131Z,5.11
2023-04-08T17:03:20.551Z,4.93
2023-04-08T17:05:48.931Z,5.33
2023-04-08T17:08:19.101Z,5.21
2023-04-08T17:10:48.739Z,4.94
2023-04-08T17:13:17.084Z,5.10
2023-04-08T17:15:45.585Z,4.96
2023-04-08T17:18:13.939Z,4.99
2023-04-08T17:20:44.769Z,5.02
2023-04-08T17:23:14.149Z,4.85
2023-04-08T17:25:43.977Z,5.14
2023-04-08T17:28:13.017Z,5.21
2023-04-08T17:30:41.319Z,5.20
2023-04-08T17:33:09.664Z,5.14
2023-04-08T17:35:38.057Z,5.15
2023-04-08T17:38:06.444Z,5.18
2023-04-08T17:40:36.522Z,5.15
2023-04-08T17:43:06.629Z,5.28
2023-04-08T17:45:34.909Z,5.33
2023-04-08T17:48:05.892Z,5.30
2023-04-08T17:50:36.438Z,5.28
2023-04-08T17:53:05.087Z,5.29
2023-04-08T17:55:33.667Z,5.34
2023-04-08T17:58:02.696Z,5.34
2023-04-08T18:00:32.498Z,5.35
2023-04-08T18:03:01.023Z,5.21
2023-04-08T18:05:30.250Z,5.34
2023-04-08T18:07:59.490Z,5.33
2023-04-08T18:10:27.834Z,5.35
2023-04-08T18:13:07.937Z,5.07
2023-04-08T18:15:41.365Z,5.28
2023-04-08T18:18:09.642Z,5.30
2023-04-08T18:20:38.190Z,5.35
2023-04-08T18:23:06.520Z,5.30
2023-04-08T18:25:35.255Z,5.25
2023-04-08T18:28:03.678Z,5.24
2023-04-08T18:30:31.999Z,5.25
2023-04-08T18:33:02.303Z,5.26
2023-04-08T18:35:30.714Z,5.26
2023-04-08T18:37:59.036Z,5.30
2023-04-08T18:40:27.460Z,5.23
2023-04-08T18:42:55.759Z,5.14
2023-04-08T18:45:24.239Z,5.19
2023-04-08T18:47:52.939Z,5.17
2023-04-08T18:50:22.756Z,5.20
2023-04-08T18:52:51.762Z,5.15
2023-04-08T18:55:20.344Z,5.02
2023-04-08T18:57:48.964Z,5.05
2023-04-08T19:00:17.568Z,5.03
2023-04-08T19:02:46.743Z,5.05
2023-04-08T19:05:15.513Z,5.09
2023-04-08T19:07:45.317Z,5.11
2023-04-08T19:10:13.593Z,5.14
2023-04-08T19:12:41.872Z,5.17
2023-04-08T19:15:11.351Z,5.20
2023-04-08T19:17:39.656Z,5.16
2023-04-08T19:20:09.736Z,5.17
2023-04-08T19:22:38.656Z,5.17
2023-04-08T19:25:09.293Z,5.23
2023-04-08T19:27:37.718Z,5.28
2023-04-08T19:30:07.325Z,5.31
2023-04-08T19:32:36.567Z,5.31
2023-04-08T19:35:05.112Z,5.29
2023-04-08T19:37:33.728Z,5.26
2023-04-08T19:40:02.102Z,5.25
2023-04-08T19:42:31.802Z,5.28
2023-04-08T19:45:01.213Z,5.22
2023-04-08T19:47:29.622Z,5.24
2023-04-08T19:49:59.639Z,5.25
2023-04-08T19:52:28.019Z,5.29
2023-04-08T19:54:56.554Z,5.25
2023-04-08T19:57:25.720Z,5.29
2023-04-08T19:59:56.180Z,5.29
2023-04-08T20:02:25.353Z,5.29
2023-04-08T20:04:53.915Z,5.25
2023-04-08T20:07:22.290Z,5.22
2023-04-08T20:09:50.620Z,5.10
2023-04-08T20:12:19.003Z,5.23
2023-04-08T20:14:47.492Z,5.24
2023-04-08T20:17:18.529Z,5.32
2023-04-08T20:19:47.082Z,5.31
2023-04-08T20:22:15.648Z,5.20
2023-04-08T20:24:43.972Z,4.90
2023-04-08T20:27:12.430Z,5.20
2023-04-08T20:29:42.072Z,5.22
2023-04-08T20:32:10.576Z,5.00
2023-04-08T20:34:41.638Z,5.17
2023-04-08T20:37:10.167Z,5.20
2023-04-08T20:39:38.572Z,5.28
2023-04-08T20:42:06.906Z,4.87
2023-04-08T20:44:35.689Z,5.18
2023-04-08T20:47:04.141Z,5.08
2023-04-08T20:49:32.853Z,5.01
2023-04-08T20:52:02.623Z,5.02
2023-04-08T20:54:31.853Z,5.08
2023-04-08T20:57:00.191Z,4.75
2023-04-08T20:59:28.478Z,4.99
2023-04-08T21:01:56.896Z,4.90
2023-04-08T21:04:25.215Z,4.99
2023-04-08T21:06:53.636Z,4.95
2023-04-08T21:09:23.444Z,4.88
2023-04-08T21:11:52.075Z,4.87
2023-04-08T21:14:20.837Z,4.91
2023-04-08T21:16:49.206Z,4.94
2023-04-08T21:19:17.672Z,4.88
2023-04-08T21:21:46.754Z,4.98
2023-04-08T21:24:15.052Z,5.01
2023-04-08T21:26:44.864Z,5.01
2023-04-08T21:29:13.709Z,5.04
2023-04-08T21:31:42.554Z,5.07
2023-04-08T21:34:11.551Z,5.10
2023-04-08T21:36:40.188Z,5.13
2023-04-08T21:39:08.834Z,5.19
2023-04-08T21:41:37.162Z,5.20
2023-04-08T21:44:07.368Z,5.21
2023-04-08T21:46:35.818Z,5.25
2023-04-08T21:49:04.116Z,5.30
2023-04-08T21:51:32.390Z,5.27
2023-04-08T21:54:00.725Z,5.21
2023-04-08T21:56:29.083Z,4.55
2023-04-08T21:58:57.333Z,5.07
2023-04-08T22:01:27.196Z,5.09
2023-04-08T22:03:56.476Z,5.08
2023-04-08T22:06:32.312Z,5.12
2023-04-08T22:09:01.691Z,5.13
2023-04-08T22:11:30.080Z,4.97
2023-04-08T22:13:58.455Z,5.17
2023-04-08T22:16:28.386Z,5.18
2023-04-08T22:18:56.959Z,5.23
2023-04-08T22:21:25.411Z,5.23
2023-04-08T22:23:53.697Z,5.23
2023-04-08T22:26:22.507Z,5.24
2023-04-08T22:28:51.057Z,5.27
2023-04-08T22:31:19.685Z,5.25
2023-04-08T22:33:49.538Z,5.23
2023-04-08T22:36:17.863Z,5.23
2023-04-08T22:38:46.533Z,5.23
2023-04-08T22:41:19.209Z,5.22
2023-04-08T22:43:47.674Z,5.18
2023-04-08T22:46:18.334Z,5.15
2023-04-08T22:48:46.855Z,4.99
2023-04-08T22:51:16.791Z,5.18
2023-04-08T22:53:45.233Z,5.17
2023-04-08T22:56:13.668Z,5.14
2023-04-08T22:58:41.954Z,5.11
2023-04-08T23:01:17.276Z,5.11
2023-04-08T23:03:46.078Z,5.13
2023-04-08T23:06:14.395Z,5.11
2023-04-08T23:08:44.581Z,5.03
2023-04-08T23:11:13.243Z,5.11
2023-04-08T23:13:41.520Z,5.11
2023-04-08T23:16:10.673Z,5.11
2023-04-08T23:18:39.046Z,5.08
2023-04-08T23:21:07.875Z,5.10
2023-04-08T23:23:36.369Z,4.83
2023-04-08T23:26:06.285Z,5.13
2023-04-08T23:28:34.559Z,5.14
2023-04-08T23:31:06.056Z,5.20
2023-04-08T23:33:34.409Z,5.12
2023-04-08T23:36:02.883Z,5.07
2023-04-08T23:38:31.230Z,4.59
2023-04-08T23:40:59.486Z,5.01
2023-04-08T23:43:29.249Z,4.88
2023-04-08T23:45:57.546Z,5.02
2023-04-08T23:48:25.930Z,5.04
2023-04-08T23:50:54.545Z,5.02
2023-04-08T23:53:23.454Z,5.04
2023-04-08T23:55:51.799Z,5.04
2023-04-08T23:58:20.249Z,5.00
